KLBL/LBL METAR and TAF weather

Enter ICAO airport designator
Station Type Date Time Source
KLBL METAR 2019/11/15 04:56 UTC NOAA

KLBL 150456Z AUTO 21007KT 10SM CLR 01/M03 A3037 RMK AO2 SLP292 T00111033 401391039 FZRANO


Station Type Date Time Source
KLBL Decoded METAR 2019/11/15 04:56 UTC NOAA

Liberal, Liberal Municipal Airport, KS, United States (KLBL) 37-03N 100-58W
Nov 14, 2019 - 11:56 PM EST / 2019.11.15 0456 UTC
Wind: from the SSW (210 degrees) at 8 MPH (7 KT):0
Visibility: 10 mile(s):0
Sky conditions: clear
Temperature: 34.0 F (1.1 C)
Windchill: 26 F (-3 C):1
Dew Point: 26.1 F (-3.3 C)
Relative Humidity: 72%
Pressure (altimeter): 30.37 in. Hg (1028 hPa)
ob: KLBL 150456Z AUTO 21007KT 10SM CLR 01/M03 A3037 RMK AO2 SLP292 T00111033 401391039 FZRANO
cycle: 5

Station Type Date Time Source
KLBL TAF 2019/11/15 06:21 UTC NOAA

TAF KLBL 150520Z 1506/1606 21007KT P6SM SKC
FM151800 19018G28KT P6SM SKC

Example: see airport list